Time;durP1;ratioP1;P1;durP2;ratioP2;P2;SDS_P1;SDS_P2;PMS_P1;PMS_P2;Temp;Humidity;BMP_temperature;BMP_pressure;BME280_temperature;BME280_humidity;BME280_pressure;Samples;Min_cycle;Max_cycle;Signal;HPM_P1;HPM_P2
2023/09/22 00:02:03;;;;;;;5.10;1.75;;;;;;;9.83;100.00;98678.53;4976344;28;20090;-89
2023/09/22 00:04:29;;;;;;;3.63;1.60;;;;;;;9.84;100.00;98677.59;4976496;28;20035;-88
2023/09/22 00:06:55;;;;;;;3.17;1.20;;;;;;;9.78;100.00;98685.84;4991510;28;20113;-89
2023/09/22 00:09:21;;;;;;;3.08;1.25;;;;;;;9.74;100.00;98684.44;4991397;28;20118;-90
2023/09/22 00:11:46;;;;;;;4.45;1.20;;;;;;;9.75;100.00;98685.25;4976381;28;20606;-89
2023/09/22 00:14:11;;;;;;;4.88;1.45;;;;;;;9.80;100.00;98690.84;4976311;28;20469;-89
2023/09/22 00:16:37;;;;;;;3.58;1.30;;;;;;;9.70;100.00;98695.13;4976382;28;20483;-89
2023/09/22 00:19:05;;;;;;;2.97;1.50;;;;;;;9.70;100.00;98695.94;4976229;28;20420;-89
2023/09/22 00:21:34;;;;;;;5.97;1.50;;;;;;;9.61;100.00;98683.81;4976263;28;20061;-89
2023/09/22 00:23:59;;;;;;;1.58;0.77;;;;;;;9.57;100.00;98697.88;4975952;28;20062;-89
2023/09/22 00:26:25;;;;;;;4.47;1.50;;;;;;;9.50;100.00;98681.28;4976056;28;20110;-89
2023/09/22 00:28:50;;;;;;;3.67;1.20;;;;;;;9.45;100.00;98691.16;4976283;28;20019;-89
2023/09/22 00:31:16;;;;;;;2.22;1.27;;;;;;;9.41;100.00;98693.13;4976157;28;20038;-89
2023/09/22 00:33:41;;;;;;;2.33;1.48;;;;;;;9.33;100.00;98696.34;4976001;28;20387;-88
2023/09/22 00:36:06;;;;;;;8.27;1.20;;;;;;;9.30;100.00;98696.59;4976146;28;20025;-89
2023/09/22 00:38:32;;;;;;;3.83;1.27;;;;;;;9.30;100.00;98712.03;4976041;28;20381;-89
2023/09/22 00:40:57;;;;;;;2.78;1.42;;;;;;;9.27;100.00;98706.31;4975862;28;20098;-89
2023/09/22 00:43:22;;;;;;;2.53;0.80;;;;;;;9.20;100.00;98700.84;4975560;28;20022;-89
2023/09/22 00:45:50;;;;;;;3.90;1.00;;;;;;;9.22;100.00;98693.81;4975827;28;20034;-89
2023/09/22 00:48:22;;;;;;;3.28;1.10;;;;;;;9.21;100.00;98697.31;4990776;28;20022;-89
2023/09/22 00:50:48;;;;;;;4.00;0.90;;;;;;;9.14;100.00;98706.47;4975881;28;20058;-89
2023/09/22 00:53:14;;;;;;;3.60;1.10;;;;;;;9.14;100.00;98716.75;4975575;28;20201;-89
2023/09/22 00:55:40;;;;;;;2.92;1.02;;;;;;;9.18;100.00;98713.00;4974203;28;20535;-89
2023/09/22 00:58:06;;;;;;;2.10;0.80;;;;;;;9.12;100.00;98718.63;4975618;28;20466;-89
2023/09/22 01:00:32;;;;;;;3.03;1.00;;;;;;;9.12;100.00;98713.47;4975424;28;20035;-89
2023/09/22 01:02:59;;;;;;;1.42;0.77;;;;;;;9.07;100.00;98715.59;4975276;28;20437;-89
2023/09/22 01:05:25;;;;;;;2.13;0.90;;;;;;;9.09;100.00;98717.13;4975287;28;20086;-89
2023/09/22 01:07:51;;;;;;;1.88;0.73;;;;;;;9.09;100.00;98713.72;4975479;28;20030;-89
2023/09/22 01:10:16;;;;;;;5.07;1.58;;;;;;;9.13;100.00;98715.13;4974470;28;20027;-89
2023/09/22 01:12:42;;;;;;;5.03;1.05;;;;;;;9.02;100.00;98713.38;4975384;28;20027;-89
2023/09/22 01:15:09;;;;;;;4.70;1.45;;;;;;;9.00;100.00;98715.28;4975279;28;20031;-89
2023/09/22 01:17:34;;;;;;;5.03;1.17;;;;;;;8.97;100.00;98720.66;4975133;28;20029;-89
2023/09/22 01:20:00;;;;;;;1.88;1.08;;;;;;;8.92;100.00;98712.47;4975257;28;20031;-89
2023/09/22 01:22:25;;;;;;;2.45;1.00;;;;;;;8.90;100.00;98720.34;4975365;28;20468;-88
2023/09/22 01:24:50;;;;;;;2.33;1.10;;;;;;;8.91;100.00;98716.81;4975180;28;20039;-89
2023/09/22 01:27:17;;;;;;;3.55;1.20;;;;;;;8.90;100.00;98717.75;4974997;28;20534;-89
2023/09/22 01:29:43;;;;;;;1.83;1.00;;;;;;;9.03;100.00;98724.53;4975101;28;20046;-89
2023/09/22 01:32:09;;;;;;;4.45;1.00;;;;;;;9.00;100.00;98721.25;4974801;28;20157;-89
2023/09/22 01:34:35;;;;;;;6.18;1.15;;;;;;;9.02;100.00;98730.59;4974831;28;20023;-88
2023/09/22 01:37:07;;;;;;;3.88;1.00;;;;;;;9.18;100.00;98736.19;4974810;28;20492;-89
2023/09/22 01:39:32;;;;;;;6.03;1.00;;;;;;;9.09;100.00;98734.31;4974807;28;20050;-89
2023/09/22 01:41:58;;;;;;;2.80;1.17;;;;;;;9.16;100.00;98738.03;4974464;28;20110;-88
2023/09/22 01:44:23;;;;;;;2.35;1.20;;;;;;;9.08;100.00;98736.09;4974649;28;20030;-89
2023/09/22 01:46:49;;;;;;;5.55;1.55;;;;;;;9.06;100.00;98740.53;4974580;28;20109;-89
2023/09/22 01:49:14;;;;;;;7.05;1.27;;;;;;;9.06;100.00;98744.88;4974486;28;20031;-89
2023/09/22 01:51:39;;;;;;;6.18;1.55;;;;;;;9.06;100.00;98744.88;4989410;28;20042;-89
2023/09/22 01:54:05;;;;;;;2.22;1.05;;;;;;;9.03;100.00;98739.97;4974488;28;20046;-89
2023/09/22 01:56:30;;;;;;;2.20;0.82;;;;;;;8.96;100.00;98740.44;4974367;28;20110;-89
2023/09/22 01:58:55;;;;;;;5.18;1.35;;;;;;;8.98;100.00;98743.69;4974547;28;20023;-89
2023/09/22 02:01:22;;;;;;;3.92;1.17;;;;;;;8.91;100.00;98739.97;4974244;28;20073;-89
2023/09/22 02:03:48;;;;;;;3.60;1.30;;;;;;;8.91;100.00;98737.41;4974040;28;20428;-89
2023/09/22 02:06:13;;;;;;;2.92;1.30;;;;;;;8.89;100.00;98744.41;4974306;28;20027;-89
2023/09/22 02:08:38;;;;;;;5.25;1.58;;;;;;;8.87;100.00;98738.56;4989005;28;20027;-88
2023/09/22 02:11:05;;;;;;;3.53;1.45;;;;;;;8.83;100.00;98739.75;4974063;28;20105;-89
2023/09/22 02:13:30;;;;;;;3.30;1.13;;;;;;;8.73;100.00;98741.38;4974265;28;20118;-89
2023/09/22 02:15:56;;;;;;;3.65;1.30;;;;;;;8.68;100.00;98736.63;4974213;28;20111;-88
2023/09/22 02:18:23;;;;;;;3.17;0.93;;;;;;;8.71;100.00;98746.66;4974022;28;20187;-89
2023/09/22 02:20:49;;;;;;;3.50;1.13;;;;;;;8.66;100.00;98741.06;4988672;28;20023;-88
2023/09/22 02:23:15;;;;;;;3.00;1.00;;;;;;;8.69;100.00;98752.88;4973564;28;20031;-89
2023/09/22 02:25:40;;;;;;;5.47;1.17;;;;;;;8.70;100.00;98757.06;4973691;28;20496;-89
2023/09/22 02:28:05;;;;;;;3.63;1.20;;;;;;;8.69;100.00;98758.00;4973702;28;20031;-89
2023/09/22 02:30:31;;;;;;;2.00;0.80;;;;;;;8.71;100.00;98753.56;4973959;28;20050;-89
2023/09/22 02:32:57;;;;;;;4.25;1.08;;;;;;;8.76;100.00;98759.19;4973679;28;20027;-89
2023/09/22 02:35:22;;;;;;;1.80;0.90;;;;;;;8.76;100.00;98759.97;4973677;28;20061;-89
2023/09/22 02:37:48;;;;;;;1.60;0.73;;;;;;;8.92;100.00;98754.47;4973468;28;20101;-89
2023/09/22 02:40:14;;;;;;;2.63;1.10;;;;;;;8.84;100.00;98756.81;4973489;28;20105;-89
2023/09/22 02:42:41;;;;;;;3.28;0.88;;;;;;;8.79;100.00;98758.94;4973376;28;20485;-88
2023/09/22 02:45:08;;;;;;;3.60;1.48;;;;;;;8.74;100.00;98761.03;4973315;28;20035;-89
2023/09/22 02:47:35;;;;;;;1.98;0.90;;;;;;;8.71;100.00;98766.44;4973406;28;20158;-89
2023/09/22 02:50:00;;;;;;;5.07;1.05;;;;;;;8.70;100.00;98763.00;4972725;28;20038;-89
2023/09/22 02:52:26;;;;;;;2.03;0.70;;;;;;;8.60;100.00;98761.28;4965698;28;20024;-89
2023/09/22 02:54:54;;;;;;;3.03;1.15;;;;;;;8.68;100.00;98761.50;4934662;29;20402;-88
2023/09/22 02:57:20;;;;;;;4.68;1.10;;;;;;;8.61;100.00;98765.47;4934959;29;20549;-88
2023/09/22 02:59:46;;;;;;;2.13;0.75;;;;;;;8.58;100.00;98766.53;4934715;29;20027;-89
2023/09/22 03:02:11;;;;;;;1.60;0.73;;;;;;;8.55;100.00;98767.56;4934818;29;20030;-89
2023/09/22 03:04:37;;;;;;;3.20;1.05;;;;;;;8.57;100.00;98775.19;4934721;29;20032;-89
2023/09/22 03:07:02;;;;;;;5.82;1.02;;;;;;;8.56;100.00;98774.38;4934868;29;20323;-89
2023/09/22 03:09:27;;;;;;;2.88;0.93;;;;;;;8.52;100.00;98785.81;4934802;29;20027;-89
2023/09/22 03:11:53;;;;;;;4.80;1.23;;;;;;;8.52;100.00;98788.38;4934594;29;20035;-89
2023/09/22 03:14:18;;;;;;;2.10;1.10;;;;;;;8.53;100.00;98784.06;4933345;29;20064;-89
2023/09/22 03:16:43;;;;;;;3.28;1.05;;;;;;;8.56;100.00;98787.22;4934679;29;20047;-89
2023/09/22 03:19:09;;;;;;;2.30;0.98;;;;;;;8.55;100.00;98788.16;4934640;29;20034;-89
2023/09/22 03:21:35;;;;;;;3.33;0.80;;;;;;;8.55;100.00;98790.72;4934660;29;20066;-89
2023/09/22 03:24:00;;;;;;;5.95;1.02;;;;;;;8.45;100.00;98794.91;4933232;29;20066;-89
2023/09/22 03:26:26;;;;;;;2.35;1.02;;;;;;;8.29;100.00;98790.09;4935080;29;20032;-89
2023/09/22 03:28:51;;;;;;;2.97;1.00;;;;;;;8.31;100.00;98790.78;4934557;29;20075;-89
2023/09/22 03:31:17;;;;;;;2.05;0.90;;;;;;;8.38;100.00;98791.13;4934509;29;20034;-89
2023/09/22 03:33:45;;;;;;;2.95;0.90;;;;;;;8.33;100.00;98788.91;4935881;29;20028;-88
2023/09/22 03:36:12;;;;;;;4.30;1.23;;;;;;;8.28;100.00;98790.19;4938255;29;20562;-89
2023/09/22 03:38:39;;;;;;;2.33;1.27;;;;;;;8.34;100.00;98793.13;4938361;29;20027;-89
2023/09/22 03:41:05;;;;;;;2.45;1.00;;;;;;;8.34;100.00;98793.13;4938397;29;20430;-88
2023/09/22 03:43:30;;;;;;;2.20;1.15;;;;;;;8.30;100.00;98803.75;4938482;29;20032;-89
2023/09/22 03:45:56;;;;;;;2.72;0.80;;;;;;;8.27;100.00;98798.84;4938496;29;20517;-89
2023/09/22 03:48:22;;;;;;;1.35;0.80;;;;;;;8.26;100.00;98808.28;4938169;29;20632;-88
2023/09/22 03:50:48;;;;;;;2.30;0.70;;;;;;;8.26;100.00;98813.44;4938190;29;20055;-88
2023/09/22 03:53:13;;;;;;;11.65;1.90;;;;;;;8.25;100.00;98805.84;4938030;29;20074;-89
2023/09/22 03:55:39;;;;;;;3.08;1.90;;;;;;;8.24;100.00;98810.19;4938144;29;20110;-89
2023/09/22 03:58:05;;;;;;;4.22;1.10;;;;;;;8.20;100.00;98802.81;4938216;29;20227;-89
2023/09/22 04:00:30;;;;;;;3.25;1.20;;;;;;;8.17;100.00;98805.56;4938011;29;20059;-89
2023/09/22 04:02:56;;;;;;;3.30;1.10;;;;;;;8.18;100.00;98809.81;4937951;29;20034;-89
2023/09/22 04:05:23;;;;;;;2.25;0.70;;;;;;;8.12;100.00;98817.03;4937840;29;20115;-89
2023/09/22 04:07:49;;;;;;;2.50;1.05;;;;;;;8.04;100.00;98813.38;4937738;29;20497;-89
2023/09/22 04:10:16;;;;;;;2.60;1.10;;;;;;;8.02;100.00;98815.22;4937820;29;20023;-89
2023/09/22 04:12:42;;;;;;;3.67;1.40;;;;;;;8.01;100.00;98819.56;4937747;29;20371;-89
2023/09/22 04:15:08;;;;;;;5.53;1.35;;;;;;;8.00;100.00;98822.22;4937737;29;20039;-89
2023/09/22 04:17:34;;;;;;;2.00;1.30;;;;;;;8.11;100.00;98825.66;4937591;29;20034;-89
2023/09/22 04:20:00;;;;;;;3.95;0.90;;;;;;;8.02;100.00;98820.38;4937738;29;20019;-89
2023/09/22 04:22:28;;;;;;;3.97;0.95;;;;;;;7.99;100.00;98829.13;4937499;29;20084;-89
2023/09/22 04:25:00;;;;;;;3.97;1.05;;;;;;;7.89;100.00;98820.44;4937732;29;20043;-89
2023/09/22 04:27:32;;;;;;;2.35;1.00;;;;;;;7.91;100.00;98828.88;4937650;29;20085;-89
2023/09/22 04:29:59;;;;;;;4.18;1.10;;;;;;;7.93;100.00;98827.00;4937515;29;20024;-89
2023/09/22 04:32:27;;;;;;;2.65;1.00;;;;;;;7.92;100.00;98825.34;4937087;29;20163;-89
2023/09/22 04:34:53;;;;;;;10.32;1.35;;;;;;;7.87;100.00;98832.56;4937367;29;20019;-89
2023/09/22 04:37:18;;;;;;;2.30;0.70;;;;;;;7.86;100.00;98826.63;4937458;29;20042;-89
2023/09/22 04:39:44;;;;;;;2.33;0.73;;;;;;;7.89;100.00;98830.72;4937264;29;20058;-89
2023/09/22 04:42:09;;;;;;;1.45;1.00;;;;;;;7.81;100.00;98822.75;4937042;29;20057;-88
2023/09/22 04:44:36;;;;;;;1.40;0.77;;;;;;;7.79;100.00;98830.56;4936440;29;20540;-89
2023/09/22 04:47:01;;;;;;;1.52;0.65;;;;;;;7.83;100.00;98826.03;4936831;29;20106;-89
2023/09/22 04:49:27;;;;;;;2.47;1.00;;;;;;;7.80;100.00;98827.06;4935898;29;20126;-89
2023/09/22 04:51:52;;;;;;;3.70;0.73;;;;;;;7.77;100.00;98831.59;4937062;29;20024;-89
2023/09/22 04:54:18;;;;;;;2.30;0.77;;;;;;;7.68;100.00;98823.63;4937125;29;20031;-90
2023/09/22 04:56:45;;;;;;;1.65;0.80;;;;;;;7.63;100.00;98837.72;4937098;29;20050;-88
2023/09/22 04:59:10;;;;;;;4.47;0.77;;;;;;;7.78;100.00;98843.50;4937071;29;20024;-88
2023/09/22 05:01:35;;;;;;;2.15;0.70;;;;;;;7.72;100.00;98850.72;4935802;29;20035;-88
2023/09/22 05:04:01;;;;;;;5.65;1.00;;;;;;;7.56;100.00;98839.91;4936732;29;20507;-88
2023/09/22 05:06:27;;;;;;;1.75;0.82;;;;;;;7.47;100.00;98838.81;4936913;29;20447;-88
2023/09/22 05:08:53;;;;;;;1.52;0.65;;;;;;;7.34;100.00;98838.03;4936861;29;20082;-88
2023/09/22 05:11:20;;;;;;;1.40;0.82;;;;;;;7.37;100.00;98844.69;4936926;28;20111;-89
2023/09/22 05:13:46;;;;;;;1.80;0.70;;;;;;;7.34;100.00;98845.72;4936849;29;20076;-89
2023/09/22 05:16:14;;;;;;;1.58;0.85;;;;;;;7.34;100.00;98852.59;4953432;29;20453;-87
2023/09/22 05:18:40;;;;;;;2.10;0.50;;;;;;;7.27;100.00;98853.03;4954683;28;20055;-88
2023/09/22 05:21:09;;;;;;;2.55;0.75;;;;;;;7.21;100.00;98845.75;4955185;28;20077;-89
2023/09/22 05:23:36;;;;;;;0.90;0.47;;;;;;;7.14;100.00;98859.91;4955598;28;20035;-89
2023/09/22 05:26:06;;;;;;;0.70;0.47;;;;;;;7.12;100.00;98860.94;4955740;28;20027;-89
2023/09/22 05:28:32;;;;;;;2.03;0.63;;;;;;;7.19;100.00;98862.97;4955502;28;20030;-89
2023/09/22 05:30:58;;;;;;;1.05;0.65;;;;;;;7.17;100.00;98864.00;4955653;28;20115;-89
2023/09/22 05:33:24;;;;;;;0.98;0.60;;;;;;;7.07;100.00;98863.81;4955599;28;20101;-89
2023/09/22 05:35:49;;;;;;;1.88;0.52;;;;;;;7.11;100.00;98862.69;4955019;28;20031;-89
2023/09/22 05:38:16;;;;;;;1.48;0.50;;;;;;;7.06;100.00;98864.75;4955503;28;20031;-89
2023/09/22 05:40:43;;;;;;;3.25;0.77;;;;;;;7.03;100.00;98872.69;4955909;28;20030;-90
2023/09/22 05:43:10;;;;;;;1.10;0.70;;;;;;;7.18;100.00;98876.75;4954067;28;20058;-90
2023/09/22 05:45:36;;;;;;;1.85;0.50;;;;;;;7.22;100.00;98887.63;4954064;28;20488;-89
2023/09/22 05:48:02;;;;;;;4.50;0.63;;;;;;;7.04;100.00;98887.13;4955201;28;20035;-90
2023/09/22 05:50:27;;;;;;;1.92;0.60;;;;;;;7.16;100.00;98891.44;4970092;28;20038;-89
2023/09/22 05:52:53;;;;;;;2.15;0.60;;;;;;;7.11;100.00;98896.06;4955246;28;20090;-90
2023/09/22 05:55:19;;;;;;;6.22;1.10;;;;;;;7.21;100.00;98899.63;4955011;28;20023;-89
2023/09/22 05:57:46;;;;;;;3.00;1.05;;;;;;;7.15;100.00;98892.38;4954686;28;20371;-89
2023/09/22 06:00:18;;;;;;;3.78;0.60;;;;;;;7.14;100.00;98898.41;4955126;28;20039;-90
2023/09/22 06:02:47;;;;;;;2.55;0.90;;;;;;;7.23;100.00;98908.03;4954839;28;20023;-89
2023/09/22 06:05:13;;;;;;;1.42;0.63;;;;;;;7.26;100.00;98909.59;4953109;28;20150;-89
2023/09/22 06:07:38;;;;;;;1.67;0.63;;;;;;;7.29;100.00;98910.22;4967761;28;20110;-89
2023/09/22 06:10:05;;;;;;;2.00;0.70;;;;;;;7.28;100.00;98907.72;4954904;28;20118;-89
2023/09/22 06:12:30;;;;;;;2.75;0.77;;;;;;;7.31;100.00;98916.97;4954727;28;20499;-90
2023/09/22 06:14:56;;;;;;;2.10;0.88;;;;;;;7.32;100.00;98919.44;4954780;28;20070;-89
2023/09/22 06:17:21;;;;;;;2.38;0.63;;;;;;;7.37;100.00;98921.69;4954668;28;20011;-89
2023/09/22 06:19:46;;;;;;;1.55;0.60;;;;;;;7.35;100.00;98921.78;4953921;28;20023;-89
2023/09/22 06:22:12;;;;;;;4.05;0.82;;;;;;;7.33;100.00;98925.38;4952364;28;20033;-92
2023/09/22 06:24:37;;;;;;;1.38;0.70;;;;;;;7.33;100.00;98930.53;4953116;28;20121;-90
2023/09/22 06:27:03;;;;;;;4.43;0.90;;;;;;;7.31;100.00;98933.19;4954016;28;20035;-90
2023/09/22 06:29:28;;;;;;;1.95;0.75;;;;;;;7.27;100.00;98935.16;4954089;28;20434;-91
2023/09/22 06:31:53;;;;;;;2.78;0.65;;;;;;;7.38;100.00;98933.59;4953578;28;20094;-91
2023/09/22 06:34:20;;;;;;;1.15;0.43;;;;;;;7.41;100.00;98935.94;4953983;28;20023;-91
2023/09/22 06:36:46;;;;;;;1.15;0.50;;;;;;;7.46;100.00;98941.56;4953690;28;20054;-91
2023/09/22 06:39:12;;;;;;;1.15;0.55;;;;;;;7.46;100.00;98946.72;4960460;28;20482;-90
2023/09/22 06:41:37;;;;;;;2.15;0.60;;;;;;;7.50;100.00;98937.88;4954220;28;20038;-91
2023/09/22 06:44:03;;;;;;;1.05;0.50;;;;;;;7.55;100.00;98942.72;4953884;28;20549;-90
2023/09/22 06:46:29;;;;;;;3.53;0.82;;;;;;;7.57;100.00;98953.69;4953881;28;20505;-90
2023/09/22 06:48:56;;;;;;;1.70;0.70;;;;;;;7.63;100.00;98959.25;4953812;28;20046;-91
2023/09/22 06:51:21;;;;;;;1.60;0.52;;;;;;;7.66;100.00;98959.03;4952956;28;20070;-93
2023/09/22 06:53:47;;;;;;;3.38;0.70;;;;;;;7.74;100.00;98962.81;4966624;28;20591;-91
2023/09/22 06:56:13;;;;;;;2.15;0.50;;;;;;;7.82;100.00;98963.09;4988134;28;20113;-90
2023/09/22 06:58:40;;;;;;;1.17;0.50;;;;;;;7.86;100.00;98965.34;4973161;28;20122;-91
2023/09/22 07:01:16;;;;;;;1.13;0.50;;;;;;;7.94;100.00;98962.22;4973079;28;20030;-90
2023/09/22 07:03:43;;;;;;;1.15;0.70;;;;;;;8.01;100.00;98960.88;4967331;28;20378;-90
2023/09/22 07:06:14;;;;;;;4.63;1.10;;;;;;;8.06;100.00;98965.69;4950608;28;20038;-92
2023/09/22 07:08:41;;;;;;;1.33;0.65;;;;;;;8.16;100.00;98971.81;4947922;28;20409;-91
2023/09/22 07:11:08;;;;;;;3.53;0.40;;;;;;;8.25;100.00;98978.06;4950908;28;20039;-92
2023/09/22 07:13:34;;;;;;;1.63;0.47;;;;;;;8.34;100.00;98983.38;4951944;28;20031;-90
2023/09/22 07:16:00;;;;;;;0.95;0.45;;;;;;;8.45;100.00;98985.19;4951775;28;20636;-89
2023/09/22 07:18:26;;;;;;;2.08;0.50;;;;;;;8.58;100.00;98987.69;4950860;28;20130;-91
2023/09/22 07:20:55;;;;;;;2.30;0.80;;;;;;;8.89;100.00;98973.41;4952287;28;20035;-91
2023/09/22 07:23:22;;;;;;;1.77;0.73;;;;;;;9.03;100.00;98979.28;4950505;28;20031;-91
2023/09/22 07:25:58;;;;;;;2.90;0.82;;;;;;;9.31;100.00;98983.19;4952995;28;20023;-92
2023/09/22 07:28:23;;;;;;;1.85;0.85;;;;;;;9.36;100.00;98988.78;4953343;28;20031;-91
2023/09/22 07:30:49;;;;;;;1.80;0.65;;;;;;;9.82;100.00;98982.69;4954812;28;20036;-91
2023/09/22 07:33:14;;;;;;;4.38;1.20;;;;;;;9.98;100.00;98984.91;4934493;29;20186;-89
2023/09/22 07:35:42;;;;;;;2.50;0.88;;;;;;;10.24;100.00;98988.00;4933241;29;20094;-93
2023/09/22 07:38:07;;;;;;;1.92;0.80;;;;;;;10.51;100.00;98982.47;4934031;29;20032;-92
2023/09/22 07:40:32;;;;;;;3.97;1.05;;;;;;;10.75;100.00;98983.97;4934791;29;20023;-94
2023/09/22 07:42:58;;;;;;;4.68;1.48;;;;;;;11.04;100.00;98984.97;4947554;29;20031;-91
2023/09/22 07:45:23;;;;;;;3.55;1.05;;;;;;;11.74;100.00;98987.75;4953022;28;20437;-92
2023/09/22 07:47:49;;;;;;;3.08;1.17;;;;;;;12.51;100.00;98988.88;4952820;28;20414;-91
2023/09/22 07:50:15;;;;;;;4.13;1.20;;;;;;;13.12;100.00;98985.13;4971037;28;20031;-95
2023/09/22 07:52:42;;;;;;;2.80;1.10;;;;;;;15.57;100.00;98994.50;4970818;28;20027;-90
2023/09/22 07:55:07;;;;;;;6.30;0.98;;;;;;;16.56;97.05;99004.25;4953210;28;20046;-89
2023/09/22 07:57:33;;;;;;;3.90;0.90;;;;;;;18.08;83.08;99005.25;4953507;28;20027;-92
2023/09/22 07:59:59;;;;;;;1.95;0.63;;;;;;;19.50;71.62;99002.97;4951989;28;20119;-92
2023/09/22 08:02:24;;;;;;;3.67;0.93;;;;;;;18.98;70.66;99010.69;4953094;28;20039;-91
2023/09/22 08:04:50;;;;;;;2.47;0.63;;;;;;;18.93;74.16;99009.59;4953327;28;20035;-93
2023/09/22 08:07:15;;;;;;;5.05;0.80;;;;;;;18.53;73.56;99011.50;4952911;28;20042;-92
2023/09/22 08:09:41;;;;;;;2.22;0.80;;;;;;;19.17;69.64;99017.22;4952114;28;20023;-91
2023/09/22 08:12:07;;;;;;;2.58;0.70;;;;;;;20.10;68.35;99015.81;4951070;28;20031;-90
2023/09/22 08:14:34;;;;;;;4.93;0.85;;;;;;;19.63;66.46;99017.06;4953358;28;20104;-92
2023/09/22 08:17:03;;;;;;;5.85;1.00;;;;;;;19.19;67.16;99030.94;4953064;28;20026;-92
2023/09/22 08:19:30;;;;;;;4.82;0.73;;;;;;;18.58;70.04;99027.47;4954032;28;20023;-93
2023/09/22 08:21:55;;;;;;;3.08;0.80;;;;;;;18.13;73.96;99034.28;4941523;28;20060;-93
2023/09/22 08:24:20;;;;;;;7.78;1.20;;;;;;;17.43;78.03;99042.81;4956196;28;20064;-92
2023/09/22 08:26:47;;;;;;;5.15;1.10;;;;;;;17.30;77.25;99038.91;4957033;28;20038;-93
2023/09/22 08:29:12;;;;;;;3.90;1.02;;;;;;;16.92;76.52;99039.59;4957019;28;20034;-92
2023/09/22 08:31:37;;;;;;;5.03;1.15;;;;;;;16.90;81.82;99048.41;4956862;28;20035;-93
2023/09/22 08:34:03;;;;;;;2.70;0.98;;;;;;;17.49;81.17;99053.41;4956815;28;20466;-92
2023/09/22 08:36:28;;;;;;;4.25;1.27;;;;;;;16.57;80.55;99055.34;4956749;28;20030;-93
2023/09/22 08:38:55;;;;;;;4.93;0.90;;;;;;;15.74;88.47;99060.44;4956556;28;20031;-92
2023/09/22 08:41:23;;;;;;;5.93;1.23;;;;;;;15.67;88.67;99060.22;4956530;28;20019;-92
2023/09/22 08:43:49;;;;;;;3.28;1.10;;;;;;;16.22;86.19;99059.84;4956325;28;20106;-92
2023/09/22 08:46:14;;;;;;;5.68;1.13;;;;;;;16.44;86.59;99068.03;4956613;28;20114;-92
2023/09/22 08:48:40;;;;;;;5.22;1.08;;;;;;;16.67;85.39;99061.22;4956300;28;20031;-91
2023/09/22 08:51:05;;;;;;;2.72;0.98;;;;;;;17.11;84.14;99066.16;4956311;28;20363;-92
2023/09/22 08:53:32;;;;;;;5.55;1.10;;;;;;;16.85;82.41;99063.72;4956244;28;20101;-93
2023/09/22 08:55:57;;;;;;;4.95;1.38;;;;;;;17.13;80.58;99070.41;4954948;28;20094;-92
2023/09/22 08:58:23;;;;;;;5.85;1.23;;;;;;;17.47;79.16;99075.41;4956270;28;20020;-91
2023/09/22 09:00:51;;;;;;;5.38;1.38;;;;;;;17.68;76.84;99080.09;4956291;28;20031;-92
2023/09/22 09:03:18;;;;;;;6.93;1.42;;;;;;;17.69;77.67;99089.56;4956270;28;20027;-92
2023/09/22 09:05:44;;;;;;;3.63;1.23;;;;;;;17.54;76.51;99092.84;4955971;28;20023;-92
2023/09/22 09:08:10;;;;;;;6.75;1.15;;;;;;;17.39;80.79;99084.06;4956059;28;20078;-91
2023/09/22 09:10:36;;;;;;;6.13;1.00;;;;;;;17.37;81.19;99093.03;4956070;28;20075;-92
2023/09/22 09:13:03;;;;;;;5.38;1.35;;;;;;;17.22;82.28;99092.91;4955899;28;20438;-92
2023/09/22 09:15:47;;;;;;;4.18;1.52;;;;;;;16.79;81.17;99094.81;4955899;29;20029;-93
2023/09/22 09:18:23;;;;;;;5.05;1.30;;;;;;;16.73;82.17;99095.41;4955779;28;20098;-92
2023/09/22 09:21:05;;;;;;;5.05;1.00;;;;;;;16.81;79.39;99098.09;4956064;28;20066;-92
2023/09/22 09:23:31;;;;;;;9.45;1.80;;;;;;;17.22;77.70;99104.13;4955716;28;20082;-92
2023/09/22 09:25:57;;;;;;;3.78;0.90;;;;;;;17.28;77.23;99102.66;4955995;28;20027;-92
2023/09/22 09:28:23;;;;;;;3.75;1.45;;;;;;;17.36;77.93;99105.25;4955812;28;20385;-92
2023/09/22 09:30:52;;;;;;;8.50;1.00;;;;;;;17.88;74.74;99115.31;4955112;28;20035;-92
2023/09/22 09:33:23;;;;;;;8.35;1.30;;;;;;;18.34;72.12;99120.69;4955469;28;20430;-91
2023/09/22 09:35:49;;;;;;;4.85;1.08;;;;;;;18.50;71.15;99108.53;4955575;28;20031;-92
2023/09/22 09:38:16;;;;;;;8.20;1.90;;;;;;;18.88;70.14;99116.50;4955630;28;20421;-91
2023/09/22 09:40:42;;;;;;;4.55;1.10;;;;;;;17.32;73.90;99114.41;4955580;28;20035;-92
2023/09/22 09:43:10;;;;;;;4.55;1.17;;;;;;;18.29;73.04;99128.22;4954161;28;20038;-91
2023/09/22 09:45:45;;;;;;;5.93;1.05;;;;;;;18.74;68.86;99121.44;4955297;28;20042;-91
2023/09/22 09:48:16;;;;;;;5.93;1.05;;;;;;;18.80;68.09;99127.78;4955298;28;20425;-92
2023/09/22 09:50:48;;;;;;;6.13;1.48;;;;;;;18.47;70.20;99137.59;4955302;28;20126;-91
2023/09/22 09:53:22;;;;;;;7.10;1.65;;;;;;;18.55;69.19;99134.94;4955263;28;20061;-92
2023/09/22 09:55:49;;;;;;;6.63;1.63;;;;;;;18.10;70.57;99128.63;4955225;28;20042;-92
2023/09/22 09:58:16;;;;;;;3.03;1.00;;;;;;;18.49;69.98;99128.63;4955116;28;20058;-92
2023/09/22 10:00:43;;;;;;;4.03;1.75;;;;;;;17.89;71.93;99134.38;4955005;28;20031;-92
2023/09/22 10:03:11;;;;;;;3.85;0.80;;;;;;;17.96;71.69;99137.97;4953799;28;20502;-91
2023/09/22 10:05:38;;;;;;;10.38;1.92;;;;;;;18.08;71.69;99138.41;4955066;28;20157;-92
2023/09/22 10:08:06;;;;;;;3.78;0.88;;;;;;;18.66;68.84;99144.22;4954960;28;20051;-92
2023/09/22 10:10:33;;;;;;;4.78;1.13;;;;;;;18.64;68.90;99133.13;4954924;28;20133;-92
2023/09/22 10:12:59;;;;;;;4.72;0.77;;;;;;;18.60;69.28;99145.69;4954895;28;20094;-92
2023/09/22 10:15:55;;;;;;;4.63;0.77;;;;;;;17.83;67.82;99146.31;4954692;28;20381;-92
2023/09/22 10:18:21;;;;;;;6.32;0.95;;;;;;;18.38;68.67;99155.91;4954795;29;20394;-92
2023/09/22 10:20:47;;;;;;;5.45;0.70;;;;;;;18.19;66.67;99153.72;4954643;28;20466;-93
2023/09/22 10:23:18;;;;;;;2.63;0.82;;;;;;;18.41;66.54;99157.41;4954597;28;20030;-92
2023/09/22 10:26:16;;;;;;;2.97;0.70;;;;;;;17.86;65.10;99159.03;4954679;28;20070;-92
2023/09/22 10:28:42;;;;;;;2.78;0.60;;;;;;;17.37;69.09;99155.63;4954539;28;20031;-92
2023/09/22 10:31:08;;;;;;;5.07;0.80;;;;;;;17.24;71.00;99151.72;4954499;28;20434;-92
2023/09/22 10:33:34;;;;;;;4.43;1.02;;;;;;;17.53;68.39;99159.06;4954640;28;20019;-92
2023/09/22 10:36:01;;;;;;;4.63;0.90;;;;;;;17.85;69.54;99159.19;4954506;28;20039;-92
2023/09/22 10:38:27;;;;;;;6.70;0.77;;;;;;;18.13;68.41;99157.00;4954428;28;20023;-91
2023/09/22 10:40:59;;;;;;;6.28;0.95;;;;;;;18.68;67.33;99163.97;4953056;28;20023;-92
2023/09/22 10:43:24;;;;;;;3.60;0.80;;;;;;;18.63;64.31;99160.22;4954396;28;20447;-92
2023/09/22 10:45:51;;;;;;;4.57;0.60;;;;;;;18.95;64.71;99165.31;4954236;28;20063;-92
2023/09/22 10:48:17;;;;;;;4.65;0.80;;;;;;;18.52;63.15;99169.25;4952919;28;20070;-91
2023/09/22 10:50:48;;;;;;;2.88;1.08;;;;;;;18.69;62.69;99176.03;4954334;28;20051;-92
2023/09/22 10:53:14;;;;;;;4.88;0.85;;;;;;;18.99;63.67;99166.56;4954644;28;20027;-92
2023/09/22 10:55:44;;;;;;;6.05;1.13;;;;;;;19.01;61.71;99163.78;4954166;28;20043;-92
2023/09/22 10:58:18;;;;;;;2.95;0.70;;;;;;;18.15;63.42;99168.09;4954013;29;20065;-92
2023/09/22 11:00:59;;;;;;;3.10;0.98;;;;;;;18.39;65.15;99170.63;4954125;28;20023;-92
2023/09/22 11:03:25;;;;;;;4.20;0.98;;;;;;;19.05;64.70;99169.50;4952656;28;20031;-91
2023/09/22 11:06:03;;;;;;;4.93;0.63;;;;;;;19.65;62.12;99164.28;4952845;28;20037;-92
2023/09/22 11:08:28;;;;;;;3.20;0.95;;;;;;;19.44;62.37;99169.38;4952738;28;20127;-93
2023/09/22 11:10:56;;;;;;;3.38;0.70;;;;;;;20.15;60.15;99172.47;4954062;28;20023;-92
2023/09/22 11:13:21;;;;;;;3.17;0.68;;;;;;;20.03;57.64;99172.09;4953735;28;20023;-92
2023/09/22 11:15:51;;;;;;;4.53;1.25;;;;;;;20.30;57.60;99177.69;4952727;28;20402;-92
2023/09/22 11:18:20;;;;;;;5.53;0.80;;;;;;;19.96;57.09;99184.28;4953702;28;20027;-93
2023/09/22 11:20:45;;;;;;;4.75;0.95;;;;;;;19.97;57.81;99179.84;4953887;28;20110;-92
2023/09/22 11:23:11;;;;;;;6.65;1.40;;;;;;;20.77;57.70;99194.00;4953674;28;20106;-92
2023/09/22 11:25:37;;;;;;;3.28;0.73;;;;;;;21.05;54.85;99194.13;4953750;28;20031;-93
2023/09/22 11:28:02;;;;;;;6.25;1.10;;;;;;;21.14;54.32;99198.22;4952529;28;20027;-93
2023/09/22 11:30:28;;;;;;;3.55;0.75;;;;;;;20.94;53.52;99198.84;4952617;28;20034;-93
2023/09/22 11:32:54;;;;;;;4.90;0.82;;;;;;;20.75;54.25;99196.81;4953559;28;20038;-92